Time,TemperatureF,DewpointF,PressureIn,WindDirection,WindDirectionDegrees,WindSpeedMPH,WindSpeedGustMPH,Humidity,HourlyPrecipIn,Conditions,Clouds,dailyrainin,SoftwareType,DateUTC
2013-01-24 00:00:00,15.4,3.9,30.09,SW,225,0.0,0.0,60,0.00,,,0.00,WUHU216HW,2013-01-24 05:00:00,
2013-01-24 00:01:00,15.4,3.9,30.09,SSE,158,0.0,0.0,60,0.00,,,0.00,WUHU216HW,2013-01-24 05:01:00,
2013-01-24 00:03:00,15.4,3.9,30.09,SSE,158,0.0,0.0,60,0.00,,,0.00,WUHU216HW,2013-01-24 05:03:00,
2013-01-24 00:08:00,15.4,3.9,30.09,WSW,248,0.0,0.0,60,0.00,,,0.00,WUHU216HW,2013-01-24 05:08:00,
2013-01-24 00:13:00,15.4,3.9,30.09,West,270,0.0,0.0,60,0.00,,,0.00,WUHU216HW,2013-01-24 05:13:00,
2013-01-24 00:18:00,15.4,4.2,30.09,WSW,248,0.0,0.0,61,0.00,,,0.00,WUHU216HW,2013-01-24 05:18:00,
2013-01-24 00:23:00,15.4,4.2,30.09,West,270,0.0,0.0,61,0.00,,,0.00,WUHU216HW,2013-01-24 05:23:00,
2013-01-24 00:28:00,15.4,4.2,30.09,WSW,248,0.0,0.0,61,0.00,,,0.00,WUHU216HW,2013-01-24 05:28:00,
2013-01-24 00:33:00,15.4,4.2,30.08,SW,225,0.0,0.0,61,0.00,,,0.00,WUHU216HW,2013-01-24 05:33:00,
2013-01-24 00:38:00,15.4,4.2,30.08,WSW,248,0.0,0.0,61,0.00,,,0.00,WUHU216HW,2013-01-24 05:38:00,
2013-01-24 00:43:00,15.4,4.2,30.09,WSW,248,0.0,0.0,61,0.00,,,0.00,WUHU216HW,2013-01-24 05:43:00,
2013-01-24 00:48:00,15.4,4.2,30.09,WSW,248,0.0,0.0,61,0.00,,,0.00,WUHU216HW,2013-01-24 05:48:00,
2013-01-24 00:53:00,15.2,4.1,30.09,West,270,0.0,0.0,61,0.00,,,0.00,WUHU216HW,2013-01-24 05:53:00,
2013-01-24 00:58:00,15.2,4.1,30.09,West,270,0.0,0.0,61,0.00,,,0.00,WUHU216HW,2013-01-24 05:58:00,
2013-01-24 01:03:00,15.0,3.9,30.09,West,270,0.0,0.0,61,0.00,,,0.00,WUHU216HW,2013-01-24 06:03:00,
2013-01-24 01:08:00,15.0,3.9,30.09,West,270,0.0,0.0,61,0.00,,,0.00,WUHU216HW,2013-01-24 06:08:00,
2013-01-24 01:13:00,14.9,4.1,30.09,West,270,0.0,0.0,62,0.00,,,0.00,WUHU216HW,2013-01-24 06:13:00,
2013-01-24 01:18:00,14.9,4.1,30.09,West,270,0.0,0.0,62,0.00,,,0.00,WUHU216HW,2013-01-24 06:18:00,
2013-01-24 01:23:00,14.9,4.1,30.09,WSW,248,0.0,0.0,62,0.00,,,0.00,WUHU216HW,2013-01-24 06:23:00,
2013-01-24 01:28:00,14.9,4.1,30.09,West,270,0.0,0.0,62,0.00,,,0.00,WUHU216HW,2013-01-24 06:28:00,
2013-01-24 01:33:00,14.9,4.1,30.10,West,270,0.0,0.0,62,0.00,,,0.00,WUHU216HW,2013-01-24 06:33:00,
2013-01-24 01:38:00,14.9,4.1,30.10,WSW,248,0.0,0.0,62,0.00,,,0.00,WUHU216HW,2013-01-24 06:38:00,
2013-01-24 01:43:00,14.9,4.1,30.10,West,270,0.0,0.0,62,0.00,,,0.00,WUHU216HW,2013-01-24 06:43:00,
2013-01-24 01:48:00,14.9,4.4,30.10,West,270,0.0,0.0,63,0.00,,,0.00,WUHU216HW,2013-01-24 06:48:00,
2013-01-24 01:53:00,14.9,4.4,30.10,West,270,0.0,0.0,63,0.00,,,0.00,WUHU216HW,2013-01-24 06:53:00,
2013-01-24 01:58:00,15.0,4.6,30.10,WSW,248,0.0,0.0,63,0.00,,,0.00,WUHU216HW,2013-01-24 06:58:00,
2013-01-24 02:03:00,15.0,4.6,30.11,WSW,248,0.0,0.0,63,0.00,,,0.00,WUHU216HW,2013-01-24 07:03:00,
2013-01-24 02:08:00,15.0,4.6,30.11,WSW,248,0.0,0.0,63,0.00,,,0.00,WUHU216HW,2013-01-24 07:08:00,
2013-01-24 02:13:00,14.9,4.4,30.12,West,270,0.0,0.0,63,0.00,,,0.00,WUHU216HW,2013-01-24 07:13:00,
2013-01-24 02:18:00,14.9,4.4,30.12,WNW,293,0.0,0.0,63,0.00,,,0.00,WUHU216HW,2013-01-24 07:18:00,
2013-01-24 02:23:00,14.7,4.3,30.12,WSW,248,0.0,0.0,63,0.00,,,0.00,WUHU216HW,2013-01-24 07:23:00,
2013-01-24 02:28:00,14.7,4.6,30.12,WSW,248,0.0,0.0,64,0.00,,,0.00,WUHU216HW,2013-01-24 07:28:00,
2013-01-24 02:33:00,14.7,4.6,30.13,West,270,0.0,0.0,64,0.00,,,0.00,WUHU216HW,2013-01-24 07:33:00,
2013-01-24 02:38:00,14.7,4.6,30.13,West,270,0.0,0.0,64,0.00,,,0.00,WUHU216HW,2013-01-24 07:38:00,
2013-01-24 02:43:00,14.7,4.6,30.13,West,270,0.0,0.0,64,0.00,,,0.00,WUHU216HW,2013-01-24 07:43:00,
2013-01-24 02:48:00,14.7,4.6,30.13,West,270,0.0,0.0,64,0.00,,,0.00,WUHU216HW,2013-01-24 07:48:00,
2013-01-24 02:53:00,14.7,4.6,30.14,WSW,248,0.0,0.0,64,0.00,,,0.00,WUHU216HW,2013-01-24 07:53:00,
2013-01-24 02:58:00,14.5,4.5,30.15,West,270,0.0,0.0,64,0.00,,,0.00,WUHU216HW,2013-01-24 07:58:00,
2013-01-24 03:03:00,14.5,4.5,30.15,WSW,248,0.0,0.0,64,0.00,,,0.00,WUHU216HW,2013-01-24 08:03:00,
2013-01-24 03:08:00,14.3,4.3,30.15,West,270,0.0,0.0,64,0.00,,,0.00,WUHU216HW,2013-01-24 08:08:00,
2013-01-24 03:13:00,14.3,4.3,30.15,WSW,248,0.0,0.0,64,0.00,,,0.00,WUHU216HW,2013-01-24 08:13:00,
2013-01-24 03:18:00,14.1,4.1,30.15,WSW,248,0.0,0.0,64,0.00,,,0.00,WUHU216HW,2013-01-24 08:18:00,
2013-01-24 03:23:00,14.1,4.1,30.16,West,270,0.0,0.0,64,0.00,,,0.00,WUHU216HW,2013-01-24 08:23:00,
2013-01-24 03:28:00,14.1,4.1,30.16,West,270,0.0,0.0,64,0.00,,,0.00,WUHU216HW,2013-01-24 08:28:00,
2013-01-24 03:33:00,14.0,4.0,30.17,West,270,0.0,0.0,64,0.00,,,0.00,WUHU216HW,2013-01-24 08:33:00,
2013-01-24 03:38:00,13.8,3.8,30.17,SW,225,0.0,0.0,64,0.00,,,0.00,WUHU216HW,2013-01-24 08:38:00,
2013-01-24 03:43:00,13.6,3.6,30.17,West,270,0.0,0.0,64,0.00,,,0.00,WUHU216HW,2013-01-24 08:43:00,
2013-01-24 03:48:00,13.6,3.6,30.17,West,270,0.0,0.0,64,0.00,,,0.00,WUHU216HW,2013-01-24 08:48:00,
2013-01-24 03:53:00,13.4,3.4,30.17,WSW,248,0.0,0.0,64,0.00,,,0.00,WUHU216HW,2013-01-24 08:53:00,
2013-01-24 03:58:00,13.6,4.0,30.17,West,270,0.0,0.0,65,0.00,,,0.00,WUHU216HW,2013-01-24 08:58:00,
2013-01-24 04:03:00,13.6,4.0,30.18,WSW,248,0.0,0.0,65,0.00,,,0.00,WUHU216HW,2013-01-24 09:03:00,
2013-01-24 04:08:00,13.6,4.1,30.18,West,270,0.0,0.0,65,0.00,,,0.00,WUHU216HW,2013-01-24 09:08:00,
2013-01-24 04:13:00,13.6,4.0,30.19,WNW,293,0.0,0.0,65,0.00,,,0.00,WUHU216HW,2013-01-24 09:13:00,
2013-01-24 04:18:00,13.6,4.0,30.19,West,270,0.0,0.0,65,0.00,,,0.00,WUHU216HW,2013-01-24 09:18:00,
2013-01-24 04:23:00,13.6,4.0,30.19,West,270,0.0,0.0,65,0.00,,,0.00,WUHU216HW,2013-01-24 09:23:00,
2013-01-24 04:28:00,13.4,3.8,30.20,WNW,293,0.0,0.0,65,0.00,,,0.00,WUHU216HW,2013-01-24 09:28:00,
2013-01-24 04:33:00,13.4,3.8,30.20,WNW,293,0.0,0.0,65,0.00,,,0.00,WUHU216HW,2013-01-24 09:33:00,
2013-01-24 04:38:00,13.4,3.6,30.20,NW,315,0.0,0.0,65,0.00,,,0.00,WUHU216HW,2013-01-24 09:38:00,
2013-01-24 04:43:00,13.1,3.4,30.20,WNW,293,0.0,0.0,65,0.00,,,0.00,WUHU216HW,2013-01-24 09:43:00,
2013-01-24 04:48:00,13.1,3.4,30.21,West,270,0.0,0.0,65,0.00,,,0.00,WUHU216HW,2013-01-24 09:48:00,
2013-01-24 04:53:00,13.1,3.4,30.21,NW,315,0.0,0.0,65,0.00,,,0.00,WUHU216HW,2013-01-24 09:53:00,
2013-01-24 04:58:00,13.1,3.4,30.21,WNW,293,0.0,0.0,65,0.00,,,0.00,WUHU216HW,2013-01-24 09:58:00,
2013-01-24 05:03:00,13.1,3.4,30.22,WNW,293,0.0,0.0,65,0.00,,,0.00,WUHU216HW,2013-01-24 10:03:00,
2013-01-24 05:08:00,12.9,3.2,30.23,WNW,293,0.0,0.0,65,0.00,,,0.00,WUHU216HW,2013-01-24 10:08:00,
2013-01-24 05:13:00,13.1,3.4,30.23,WNW,293,0.0,0.0,65,0.00,,,0.00,WUHU216HW,2013-01-24 10:13:00,
2013-01-24 05:18:00,12.9,3.2,30.23,WNW,293,0.0,0.0,65,0.00,,,0.00,WUHU216HW,2013-01-24 10:18:00,
2013-01-24 05:23:00,12.9,3.2,30.24,West,270,0.0,0.0,65,0.00,,,0.00,WUHU216HW,2013-01-24 10:23:00,
2013-01-24 05:28:00,12.9,3.2,30.24,WNW,293,0.0,0.0,65,0.00,,,0.00,WUHU216HW,2013-01-24 10:28:00,
2013-01-24 05:33:00,12.7,3.1,30.25,WNW,293,0.0,0.0,65,0.00,,,0.00,WUHU216HW,2013-01-24 10:33:00,
2013-01-24 05:38:00,12.5,2.9,30.25,WNW,293,0.0,0.0,65,0.00,,,0.00,WUHU216HW,2013-01-24 10:38:00,
2013-01-24 05:43:00,12.3,2.9,30.26,WNW,293,0.0,0.0,65,0.00,,,0.00,WUHU216HW,2013-01-24 10:43:00,
2013-01-24 05:48:00,12.3,2.7,30.26,WNW,293,0.0,0.0,65,0.00,,,0.00,WUHU216HW,2013-01-24 10:48:00,
2013-01-24 05:53:00,12.3,2.7,30.26,West,270,0.0,0.0,65,0.00,,,0.00,WUHU216HW,2013-01-24 10:53:00,
2013-01-24 05:58:00,12.3,2.7,30.27,West,270,0.0,0.0,65,0.00,,,0.00,WUHU216HW,2013-01-24 10:58:00,
2013-01-24 06:03:00,12.3,2.7,30.27,WNW,293,0.0,0.0,65,0.00,,,0.00,WUHU216HW,2013-01-24 11:03:00,
2013-01-24 06:08:00,12.3,2.7,30.27,WNW,293,0.0,0.0,65,0.00,,,0.00,WUHU216HW,2013-01-24 11:08:00,
2013-01-24 06:13:00,12.3,2.7,30.28,WNW,293,0.0,0.0,65,0.00,,,0.00,WUHU216HW,2013-01-24 11:13:00,
2013-01-24 06:18:00,12.3,2.4,30.28,West,270,0.0,0.0,64,0.00,,,0.00,WUHU216HW,2013-01-24 11:18:00,
2013-01-24 06:23:00,12.3,2.2,30.29,West,270,0.0,0.0,64,0.00,,,0.00,WUHU216HW,2013-01-24 11:23:00,
2013-01-24 06:28:00,11.8,1.8,30.30,West,270,0.0,0.0,64,0.00,,,0.00,WUHU216HW,2013-01-24 11:28:00,
2013-01-24 06:33:00,11.6,1.3,30.30,WNW,293,0.0,0.0,63,0.00,,,0.00,WUHU216HW,2013-01-24 11:33:00,
2013-01-24 06:38:00,11.6,1.3,30.31,WNW,293,0.0,0.0,63,0.00,,,0.00,WUHU216HW,2013-01-24 11:38:00,
2013-01-24 06:43:00,11.4,1.2,30.31,SW,225,0.0,0.0,63,0.00,,,0.00,WUHU216HW,2013-01-24 11:43:00,
2013-01-24 06:48:00,11.4,1.2,30.32,WNW,293,0.0,0.0,63,0.00,,,0.00,WUHU216HW,2013-01-24 11:48:00,
2013-01-24 06:53:00,11.4,1.2,30.32,West,270,0.0,0.0,63,0.00,,,0.00,WUHU216HW,2013-01-24 11:53:00,
2013-01-24 06:58:00,11.4,1.2,30.33,West,270,0.0,0.0,63,0.00,,,0.00,WUHU216HW,2013-01-24 11:58:00,
2013-01-24 07:03:00,11.3,1.0,30.33,WNW,293,0.0,0.0,63,0.00,,,0.00,WUHU216HW,2013-01-24 12:03:00,
2013-01-24 07:08:00,11.3,1.0,30.34,WNW,293,0.0,0.0,63,0.00,,,0.00,WUHU216HW,2013-01-24 12:08:00,
2013-01-24 07:13:00,11.1,0.8,30.34,WNW,293,0.0,0.0,63,0.00,,,0.00,WUHU216HW,2013-01-24 12:13:00,
2013-01-24 07:18:00,11.1,0.5,30.35,WNW,293,0.0,0.0,62,0.00,,,0.00,WUHU216HW,2013-01-24 12:18:00,
2013-01-24 07:23:00,11.1,0.5,30.36,West,270,0.0,0.0,62,0.00,,,0.00,WUHU216HW,2013-01-24 12:23:00,
2013-01-24 07:28:00,11.1,0.5,30.36,WNW,293,0.0,0.0,62,0.00,,,0.00,WUHU216HW,2013-01-24 12:28:00,
2013-01-24 07:33:00,10.9,0.3,30.36,NW,315,0.0,0.0,62,0.00,,,0.00,WUHU216HW,2013-01-24 12:33:00,
2013-01-24 07:38:00,10.7,0.2,30.37,WNW,293,0.0,0.0,62,0.00,,,0.00,WUHU216HW,2013-01-24 12:38:00,
2013-01-24 07:43:00,10.5,0.0,30.38,NW,315,0.0,0.0,62,0.00,,,0.00,WUHU216HW,2013-01-24 12:43:00,
2013-01-24 07:48:00,10.5,0.0,30.38,WNW,293,0.0,0.0,62,0.00,,,0.00,WUHU216HW,2013-01-24 12:48:00,
2013-01-24 07:53:00,10.4,-0.1,30.39,NW,315,0.0,0.0,62,0.00,,,0.00,WUHU216HW,2013-01-24 12:53:00,
2013-01-24 07:58:00,10.4,-0.1,30.39,NW,315,0.0,0.0,62,0.00,,,0.00,WUHU216HW,2013-01-24 12:58:00,
2013-01-24 08:03:00,10.4,-0.1,30.39,NNW,338,0.0,0.0,62,0.00,,,0.00,WUHU216HW,2013-01-24 13:03:00,
2013-01-24 08:08:00,10.4,-0.4,30.40,NNW,338,0.0,0.0,61,0.00,,,0.00,WUHU216HW,2013-01-24 13:08:00,
2013-01-24 08:13:00,10.2,-0.6,30.40,WNW,293,0.0,0.0,61,0.00,,,0.00,WUHU216HW,2013-01-24 13:13:00,
2013-01-24 08:18:00,10.4,-0.4,30.40,NNW,338,0.0,0.0,61,0.00,,,0.00,WUHU216HW,2013-01-24 13:18:00,
2013-01-24 08:23:00,10.5,-0.2,30.41,NNW,338,0.0,0.0,61,0.00,,,0.00,WUHU216HW,2013-01-24 13:23:00,
2013-01-24 08:28:00,10.5,-0.2,30.41,NNW,338,0.0,0.0,61,0.00,,,0.00,WUHU216HW,2013-01-24 13:28:00,
2013-01-24 08:33:00,10.5,-0.2,30.41,NNW,338,0.0,0.0,61,0.00,,,0.00,WUHU216HW,2013-01-24 13:33:00,
2013-01-24 08:38:00,10.7,-0.1,30.41,NW,315,0.0,0.0,61,0.00,,,0.00,WUHU216HW,2013-01-24 13:38:00,
2013-01-24 08:43:00,10.7,-0.1,30.41,NW,315,0.0,0.0,61,0.00,,,0.00,WUHU216HW,2013-01-24 13:43:00,
2013-01-24 08:48:00,11.1,0.2,30.42,NW,315,0.0,0.0,61,0.00,,,0.00,WUHU216HW,2013-01-24 13:48:00,
2013-01-24 08:53:00,11.1,0.2,30.43,NNW,338,0.0,0.0,61,0.00,,,0.00,WUHU216HW,2013-01-24 13:53:00,
2013-01-24 08:58:00,11.3,0.3,30.43,WNW,293,0.0,0.0,61,0.00,,,0.00,WUHU216HW,2013-01-24 13:58:00,
2013-01-24 09:03:00,11.6,0.3,30.43,NW,315,0.0,0.0,60,0.00,,,0.00,WUHU216HW,2013-01-24 14:03:00,
2013-01-24 09:08:00,11.8,0.5,30.44,WNW,293,0.0,0.0,60,0.00,,,0.00,WUHU216HW,2013-01-24 14:08:00,
2013-01-24 09:13:00,12.3,1.0,30.44,NNW,338,0.0,0.0,60,0.00,,,0.00,WUHU216HW,2013-01-24 14:13:00,
2013-01-24 09:18:00,12.5,1.2,30.44,West,270,0.0,0.0,60,0.00,,,0.00,WUHU216HW,2013-01-24 14:18:00,
2013-01-24 09:23:00,12.9,1.5,30.45,West,270,0.0,0.0,60,0.00,,,0.00,WUHU216HW,2013-01-24 14:23:00,
2013-01-24 09:28:00,13.1,1.9,30.45,NNW,338,0.0,0.0,60,0.00,,,0.00,WUHU216HW,2013-01-24 14:28:00,
2013-01-24 09:33:00,13.6,2.3,30.46,NNW,338,0.0,0.0,60,0.00,,,0.00,WUHU216HW,2013-01-24 14:33:00,
2013-01-24 09:38:00,14.1,2.4,30.46,NW,315,0.0,1.3,59,0.00,,,0.00,WUHU216HW,2013-01-24 14:38:00,
2013-01-24 09:43:00,14.1,2.4,30.46,North,0,0.0,1.3,59,0.00,,,0.00,WUHU216HW,2013-01-24 14:43:00,
2013-01-24 09:48:00,14.7,2.9,30.46,East,90,0.0,0.0,59,0.00,,,0.00,WUHU216HW,2013-01-24 14:48:00,
2013-01-24 09:53:00,14.9,2.6,30.46,North,0,0.0,0.0,58,0.00,,,0.00,WUHU216HW,2013-01-24 14:53:00,
2013-01-24 09:58:00,15.4,3.1,30.47,NNE,23,0.0,0.0,58,0.00,,,0.00,WUHU216HW,2013-01-24 14:58:00,
2013-01-24 10:03:00,15.9,3.3,30.47,NNW,338,0.0,0.0,57,0.00,,,0.00,WUHU216HW,2013-01-24 15:03:00,
2013-01-24 10:08:00,16.1,3.1,30.48,North,0,0.0,0.0,56,0.00,,,0.00,WUHU216HW,2013-01-24 15:08:00,
2013-01-24 10:13:00,16.7,3.2,30.48,North,0,0.0,0.0,55,0.00,,,0.00,WUHU216HW,2013-01-24 15:13:00,
2013-01-24 10:18:00,16.8,3.4,30.48,WNW,293,3.1,3.1,55,0.00,,,0.00,WUHU216HW,2013-01-24 15:18:00,
2013-01-24 10:23:00,17.0,2.9,30.49,NW,315,0.0,3.1,53,0.00,,,0.00,WUHU216HW,2013-01-24 15:23:00,
2013-01-24 10:28:00,17.4,2.7,30.49,NW,315,0.0,0.0,52,0.00,,,0.00,WUHU216HW,2013-01-24 15:28:00,
2013-01-24 10:33:00,17.7,2.6,30.49,WNW,293,0.0,0.0,51,0.00,,,0.00,WUHU216HW,2013-01-24 15:33:00,
2013-01-24 10:38:00,17.9,2.4,30.50,North,0,0.0,0.0,50,0.00,,,0.00,WUHU216HW,2013-01-24 15:38:00,
2013-01-24 10:43:00,18.1,2.1,30.50,WNW,293,0.0,1.3,49,0.00,,,0.00,WUHU216HW,2013-01-24 15:43:00,
2013-01-24 10:48:00,18.3,1.2,30.51,NW,315,0.0,1.3,48,0.00,,,0.00,WUHU216HW,2013-01-24 15:48:00,
2013-01-24 10:53:00,18.5,1.5,30.51,NW,315,0.0,0.8,47,0.00,,,0.00,WUHU216HW,2013-01-24 15:53:00,
2013-01-24 10:58:00,19.0,2.0,30.51,West,270,0.0,3.1,47,0.00,,,0.00,WUHU216HW,2013-01-24 15:58:00,
2013-01-24 11:03:00,19.0,1.5,30.51,WSW,248,0.0,3.1,46,0.00,,,0.00,WUHU216HW,2013-01-24 16:03:00,
2013-01-24 11:08:00,19.0,1.0,30.52,NW,315,0.0,0.0,45,0.00,,,0.00,WUHU216HW,2013-01-24 16:08:00,
2013-01-24 11:13:00,19.5,1.0,30.52,West,270,0.0,0.0,44,0.00,,,0.00,WUHU216HW,2013-01-24 16:13:00,
2013-01-24 11:18:00,19.9,1.2,30.52,West,270,0.0,0.0,44,0.00,,,0.00,WUHU216HW,2013-01-24 16:18:00,
2013-01-24 11:23:00,20.4,1.4,30.53,NNE,23,0.0,1.1,43,0.00,,,0.00,WUHU216HW,2013-01-24 16:23:00,
2013-01-24 11:28:00,21.2,2.0,30.53,North,0,0.0,1.3,43,0.00,,,0.00,WUHU216HW,2013-01-24 16:28:00,
2013-01-24 11:33:00,21.5,1.9,30.53,SSW,203,0.0,1.3,42,0.00,,,0.00,WUHU216HW,2013-01-24 16:33:00,
2013-01-24 11:38:00,21.5,1.4,30.53,SW,225,0.0,3.8,41,0.00,,,0.00,WUHU216HW,2013-01-24 16:38:00,
2013-01-24 11:43:00,21.7,1.0,30.53,WNW,293,0.0,3.8,40,0.00,,,0.00,WUHU216HW,2013-01-24 16:43:00,
2013-01-24 11:48:00,21.9,1.3,30.53,North,0,0.0,0.0,40,0.00,,,0.00,WUHU216HW,2013-01-24 16:48:00,
2013-01-24 11:53:00,22.2,1.6,30.54,NE,45,0.0,2.4,40,0.00,,,0.00,WUHU216HW,2013-01-24 16:53:00,
2013-01-24 11:58:00,22.6,1.3,30.53,SW,225,0.0,2.4,39,0.00,,,0.00,WUHU216HW,2013-01-24 16:58:00,
2013-01-24 12:03:00,23.0,2.3,30.53,North,0,0.0,0.0,40,0.00,,,0.00,WUHU216HW,2013-01-24 17:03:00,
2013-01-24 12:08:00,23.1,1.8,30.53,SW,225,0.0,0.0,39,0.00,,,0.00,WUHU216HW,2013-01-24 17:08:00,
2013-01-24 12:13:00,23.1,0.6,30.53,WSW,248,1.5,1.5,37,0.00,,,0.00,WUHU216HW,2013-01-24 17:13:00,
2013-01-24 12:18:00,22.8,-0.3,30.53,West,270,0.0,1.5,36,0.00,,,0.00,WUHU216HW,2013-01-24 17:18:00,
2013-01-24 12:23:00,22.6,0.1,30.53,South,180,0.0,2.0,37,0.00,,,0.00,WUHU216HW,2013-01-24 17:23:00,
2013-01-24 12:28:00,22.4,0.0,30.52,WNW,293,0.0,2.0,37,0.00,,,0.00,WUHU216HW,2013-01-24 17:28:00,
2013-01-24 12:33:00,22.8,0.3,30.52,West,270,0.0,2.6,37,0.00,,,0.00,WUHU216HW,2013-01-24 17:33:00,
2013-01-24 12:38:00,22.6,-0.4,30.51,WNW,293,0.0,2.6,36,0.00,,,0.00,WUHU216HW,2013-01-24 17:38:00,
2013-01-24 12:43:00,23.0,-0.1,30.51,West,270,2.0,2.0,36,0.00,,,0.00,WUHU216HW,2013-01-24 17:43:00,
2013-01-24 12:48:00,23.1,0.0,30.51,SSW,203,0.0,2.0,36,0.00,,,0.00,WUHU216HW,2013-01-24 17:48:00,
2013-01-24 12:53:00,23.5,0.3,30.51,SW,225,0.0,1.1,36,0.00,,,0.00,WUHU216HW,2013-01-24 17:53:00,
2013-01-24 12:58:00,23.9,0.6,30.51,WSW,248,1.5,1.5,36,0.00,,,0.00,WUHU216HW,2013-01-24 17:58:00,
2013-01-24 13:03:00,24.8,2.0,30.51,WNW,293,0.0,1.5,37,0.00,,,0.00,WUHU216HW,2013-01-24 18:03:00,
2013-01-24 13:08:00,25.8,3.0,30.51,WSW,248,1.7,1.7,37,0.00,,,0.00,WUHU216HW,2013-01-24 18:08:00,
2013-01-24 13:13:00,26.2,2.6,30.51,WNW,293,2.9,2.9,36,0.00,,,0.00,WUHU216HW,2013-01-24 18:13:00,
2013-01-24 13:18:00,26.2,0.8,30.51,West,270,0.0,5.5,33,0.00,,,0.00,WUHU216HW,2013-01-24 18:18:00,
2013-01-24 13:23:00,26.4,0.3,30.51,WNW,293,0.0,5.5,32,0.00,,,0.00,WUHU216HW,2013-01-24 18:23:00,
2013-01-24 13:28:00,27.1,0.9,30.51,WNW,293,1.1,2.9,32,0.00,,,0.00,WUHU216HW,2013-01-24 18:28:00,
2013-01-24 13:33:00,27.6,1.4,30.51,WSW,248,0.0,2.6,32,0.00,,,0.00,WUHU216HW,2013-01-24 18:33:00,
2013-01-24 13:38:00,27.5,-1.6,30.51,WNW,293,0.0,2.6,28,0.00,,,0.00,WUHU216HW,2013-01-24 18:38:00,
2013-01-24 13:43:00,28.5,0.1,30.50,SSW,203,0.0,3.8,29,0.00,,,0.00,WUHU216HW,2013-01-24 18:43:00,
2013-01-24 13:48:00,29.3,0.0,30.50,SSW,203,0.0,3.8,28,0.00,,,0.00,WUHU216HW,2013-01-24 18:48:00,
2013-01-24 13:54:00,30.5,2.8,30.50,West,270,0.0,2.9,30,0.00,,,0.00,WUHU216HW,2013-01-24 18:54:00,
2013-01-24 13:59:00,30.7,-2.2,30.50,NW,315,2.4,2.9,27,0.00,,,0.00,WUHU216HW,2013-01-24 18:59:00,
2013-01-24 14:04:00,30.7,-5.6,30.50,NW,315,0.0,2.9,20,0.00,,,0.00,WUHU216HW,2013-01-24 19:04:00,
2013-01-24 14:09:00,30.5,-6.9,30.50,WSW,248,0.0,1.3,19,0.00,,,0.00,WUHU216HW,2013-01-24 19:09:00,
2013-01-24 14:14:00,29.6,-7.7,30.50,WSW,248,0.0,5.8,19,0.00,,,0.00,WUHU216HW,2013-01-24 19:14:00,
2013-01-24 14:19:00,29.8,-7.5,30.50,NW,315,0.0,5.8,19,0.00,,,0.00,WUHU216HW,2013-01-24 19:19:00,
2013-01-24 14:24:00,31.2,-6.3,30.51,NNE,23,0.0,2.0,19,0.00,,,0.00,WUHU216HW,2013-01-24 19:24:00,
2013-01-24 14:29:00,32.3,-2.5,30.50,ESE,113,0.0,1.7,22,0.00,,,0.00,WUHU216HW,2013-01-24 19:29:00,
2013-01-24 14:34:00,33.2,-4.7,30.50,North,0,0.0,1.7,19,0.00,,,0.00,WUHU216HW,2013-01-24 19:34:00,
2013-01-24 14:39:00,33.2,-4.7,30.50,SSE,158,0.0,0.0,19,0.00,,,0.00,WUHU216HW,2013-01-24 19:39:00,
2013-01-24 14:44:00,33.6,-4.3,30.50,West,270,0.0,2.2,19,0.00,,,0.00,WUHU216HW,2013-01-24 19:44:00,
2013-01-24 14:49:00,33.2,-4.7,30.50,SSE,158,0.0,2.2,19,0.00,,,0.00,WUHU216HW,2013-01-24 19:49:00,
2013-01-24 14:54:00,32.9,-4.9,30.50,SW,225,0.0,0.8,19,0.00,,,0.00,WUHU216HW,2013-01-24 19:54:00,
2013-01-24 14:59:00,32.5,-5.2,30.51,NW,315,0.0,0.8,19,0.00,,,0.00,WUHU216HW,2013-01-24 19:59:00,
2013-01-24 15:04:00,32.9,-4.9,30.50,ESE,113,0.0,2.9,19,0.00,,,0.00,WUHU216HW,2013-01-24 20:04:00,
2013-01-24 15:09:00,33.8,-4.2,30.50,WNW,293,0.0,2.9,19,0.00,,,0.00,WUHU216HW,2013-01-24 20:09:00,
2013-01-24 15:14:00,33.9,-4.1,30.51,WNW,293,0.0,0.0,19,0.00,,,0.00,WUHU216HW,2013-01-24 20:14:00,
2013-01-24 15:19:00,33.4,-4.5,30.51,NNW,338,0.0,0.0,19,0.00,,,0.00,WUHU216HW,2013-01-24 20:19:00,
2013-01-24 15:24:00,32.5,-5.2,30.51,NW,315,0.0,0.0,19,0.00,,,0.00,WUHU216HW,2013-01-24 20:24:00,
2013-01-24 15:29:00,31.1,-6.4,30.51,WNW,293,0.0,0.0,19,0.00,,,0.00,WUHU216HW,2013-01-24 20:29:00,
2013-01-24 15:33:00,29.6,-7.7,30.51,NW,315,0.0,0.0,19,0.00,,,0.00,WUHU216HW,2013-01-24 20:33:00,
2013-01-24 15:38:00,28.9,-8.2,30.51,NNE,23,0.0,0.0,19,0.00,,,0.00,WUHU216HW,2013-01-24 20:38:00,
2013-01-24 15:43:00,28.5,-8.6,30.51,WNW,293,0.0,0.0,19,0.00,,,0.00,WUHU216HW,2013-01-24 20:43:00,
2013-01-24 15:48:00,28.2,-8.8,30.51,WSW,248,0.0,0.0,19,0.00,,,0.00,WUHU216HW,2013-01-24 20:48:00,
2013-01-24 15:54:00,28.0,-9.0,30.51,West,270,0.0,2.4,19,0.00,,,0.00,WUHU216HW,2013-01-24 20:54:00,
2013-01-24 15:58:00,27.6,-9.3,30.51,NW,315,0.0,2.4,19,0.00,,,0.00,WUHU216HW,2013-01-24 20:58:00,
2013-01-24 16:03:00,27.5,-9.4,30.51,NNE,23,0.0,0.0,19,0.00,,,0.00,WUHU216HW,2013-01-24 21:03:00,
2013-01-24 16:08:00,27.5,-9.4,30.51,NW,315,0.0,0.0,19,0.00,,,0.00,WUHU216HW,2013-01-24 21:08:00,
2013-01-24 16:13:00,27.8,-9.2,30.51,North,0,0.0,0.0,19,0.00,,,0.00,WUHU216HW,2013-01-24 21:13:00,
2013-01-24 16:18:00,27.8,-9.2,30.51,NE,45,0.0,0.0,19,0.00,,,0.00,WUHU216HW,2013-01-24 21:18:00,
2013-01-24 16:23:00,28.0,-9.0,30.51,North,0,0.0,0.0,19,0.00,,,0.00,WUHU216HW,2013-01-24 21:23:00,
2013-01-24 16:28:00,27.6,-9.3,30.51,NNE,23,0.0,0.0,19,0.00,,,0.00,WUHU216HW,2013-01-24 21:28:00,
2013-01-24 16:33:00,27.1,-9.7,30.51,NNE,23,0.0,0.0,19,0.00,,,0.00,WUHU216HW,2013-01-24 21:33:00,
2013-01-24 16:38:00,26.2,-10.5,30.51,NE,45,0.0,0.0,19,0.00,,,0.00,WUHU216HW,2013-01-24 21:38:00,
2013-01-24 16:43:00,25.5,-11.1,30.51,NNW,338,0.0,0.0,19,0.00,,,0.00,WUHU216HW,2013-01-24 21:43:00,
2013-01-24 16:48:00,24.9,-11.6,30.51,NNW,338,0.0,0.0,19,0.00,,,0.00,WUHU216HW,2013-01-24 21:48:00,
2013-01-24 16:53:00,24.0,-12.3,30.50,North,0,0.0,0.0,19,0.00,,,0.00,WUHU216HW,2013-01-24 21:53:00,
2013-01-24 16:58:00,23.7,-12.6,30.50,NW,315,0.0,0.0,19,0.00,,,0.00,WUHU216HW,2013-01-24 21:58:00,
2013-01-24 17:03:00,23.1,-13.1,30.51,SSW,203,0.0,0.0,19,0.00,,,0.00,WUHU216HW,2013-01-24 22:03:00,
2013-01-24 17:08:00,22.6,-13.5,30.51,NNE,23,0.0,0.0,19,0.00,,,0.00,WUHU216HW,2013-01-24 22:08:00,
2013-01-24 17:13:00,22.2,-13.8,30.51,NNE,23,0.0,0.0,19,0.00,,,0.00,WUHU216HW,2013-01-24 22:13:00,
2013-01-24 17:18:00,21.9,-14.1,30.51,NNE,23,0.0,0.0,19,0.00,,,0.00,WUHU216HW,2013-01-24 22:18:00,
2013-01-24 17:23:00,21.5,-14.4,30.51,NNE,23,0.0,0.0,19,0.00,,,0.00,WUHU216HW,2013-01-24 22:23:00,
2013-01-24 17:28:00,21.3,-14.6,30.51,NNE,23,0.0,0.0,19,0.00,,,0.00,WUHU216HW,2013-01-24 22:28:00,
2013-01-24 17:33:00,21.0,-14.8,30.51,NNE,23,0.0,0.0,19,0.00,,,0.00,WUHU216HW,2013-01-24 22:33:00,
2013-01-24 17:38:00,20.6,-15.2,30.51,NNE,23,0.0,0.0,19,0.00,,,0.00,WUHU216HW,2013-01-24 22:38:00,
2013-01-24 17:43:00,20.4,-15.3,30.52,NNE,23,0.0,0.0,19,0.00,,,0.00,WUHU216HW,2013-01-24 22:43:00,
2013-01-24 17:48:00,20.3,-15.4,30.52,NNE,23,0.0,0.0,19,0.00,,,0.00,WUHU216HW,2013-01-24 22:48:00,
2013-01-24 17:53:00,20.1,-15.6,30.52,NNE,23,0.0,0.0,19,0.00,,,0.00,WUHU216HW,2013-01-24 22:53:00,
2013-01-24 17:58:00,19.7,-15.9,30.52,NNE,23,0.0,0.0,19,0.00,,,0.00,WUHU216HW,2013-01-24 22:58:00,
2013-01-24 18:03:00,19.5,-16.1,30.52,NNE,23,0.0,0.0,19,0.00,,,0.00,WUHU216HW,2013-01-24 23:03:00,
2013-01-24 18:08:00,19.4,-16.2,30.52,NNE,23,0.0,0.0,19,0.00,,,0.00,WUHU216HW,2013-01-24 23:08:00,
2013-01-24 18:14:00,19.0,-16.5,30.53,NNE,23,0.0,0.0,19,0.00,,,0.00,WUHU216HW,2013-01-24 23:14:00,
2013-01-24 18:18:00,18.8,-16.7,30.53,NNE,23,0.0,0.0,19,0.00,,,0.00,WUHU216HW,2013-01-24 23:18:00,
2013-01-24 18:23:00,18.5,-16.9,30.53,NNE,23,0.0,0.0,19,0.00,,,0.00,WUHU216HW,2013-01-24 23:23:00,
2013-01-24 18:28:00,18.1,-17.2,30.53,NNE,23,0.0,0.0,19,0.00,,,0.00,WUHU216HW,2013-01-24 23:28:00,
2013-01-24 18:33:00,17.9,-17.4,30.54,NNE,23,0.0,0.0,19,0.00,,,0.00,WUHU216HW,2013-01-24 23:33:00,
2013-01-24 18:38:00,17.9,-17.4,30.53,NNE,23,0.0,0.0,19,0.00,,,0.00,WUHU216HW,2013-01-24 23:38:00,
2013-01-24 18:43:00,17.7,-17.6,30.54,NNE,23,0.0,0.0,19,0.00,,,0.00,WUHU216HW,2013-01-24 23:43:00,
2013-01-24 18:48:00,17.7,-16.6,30.54,NNE,23,0.0,0.0,20,0.00,,,0.00,WUHU216HW,2013-01-24 23:48:00,
2013-01-24 18:53:00,17.6,-17.7,30.54,NNE,23,0.0,0.0,19,0.00,,,0.00,WUHU216HW,2013-01-24 23:53:00,
2013-01-24 18:58:00,17.4,-16.9,30.54,NNE,23,0.0,0.0,20,0.00,,,0.00,WUHU216HW,2013-01-24 23:58:00,
2013-01-24 19:03:00,17.4,-15.3,30.54,NNE,23,0.0,0.0,22,0.00,,,0.00,WUHU216HW,2013-01-25 00:03:00,
2013-01-24 19:08:00,17.2,-16.2,30.54,NNE,23,0.0,0.0,21,0.00,,,0.00,WUHU216HW,2013-01-25 00:08:00,
2013-01-24 19:13:00,17.2,-15.4,30.54,NNE,23,0.0,0.0,22,0.00,,,0.00,WUHU216HW,2013-01-25 00:13:00,
2013-01-24 19:18:00,17.2,-13.8,30.54,NNE,23,0.0,0.0,24,0.00,,,0.00,WUHU216HW,2013-01-25 00:18:00,
2013-01-24 19:23:00,17.0,-13.9,30.53,NNE,23,0.0,0.0,24,0.00,,,0.00,WUHU216HW,2013-01-25 00:23:00,
2013-01-24 19:28:00,17.0,-13.1,30.54,NE,45,0.0,0.0,25,0.00,,,0.00,WUHU216HW,2013-01-25 00:28:00,
2013-01-24 19:33:00,17.0,-11.5,30.54,NE,45,0.0,0.0,27,0.00,,,0.00,WUHU216HW,2013-01-25 00:33:00,
2013-01-24 19:38:00,16.7,-11.8,30.54,NE,45,0.0,0.0,27,0.00,,,0.00,WUHU216HW,2013-01-25 00:38:00,
2013-01-24 19:43:00,16.7,-11.8,30.54,NE,45,0.0,0.0,28,0.00,,,0.00,WUHU216HW,2013-01-25 00:43:00,
2013-01-24 19:48:00,16.5,-11.1,30.54,NE,45,0.0,0.0,28,0.00,,,0.00,WUHU216HW,2013-01-25 00:48:00,
2013-01-24 19:53:00,16.5,-9.5,30.54,NE,45,0.0,0.0,30,0.00,,,0.00,WUHU216HW,2013-01-25 00:53:00,
2013-01-24 19:58:00,16.3,-9.8,30.54,NE,45,0.0,0.0,30,0.00,,,0.00,WUHU216HW,2013-01-25 00:58:00,
2013-01-24 20:03:00,16.1,-9.8,30.54,NE,45,0.0,0.0,30,0.00,,,0.00,WUHU216HW,2013-01-25 01:03:00,
2013-01-24 20:08:00,15.9,-9.9,30.53,NE,45,0.0,0.0,30,0.00,,,0.00,WUHU216HW,2013-01-25 01:08:00,
2013-01-24 20:13:00,15.9,-9.4,30.53,NE,45,0.0,0.0,31,0.00,,,0.00,WUHU216HW,2013-01-25 01:13:00,
2013-01-24 20:18:00,15.9,-8.8,30.53,NE,45,0.0,0.0,32,0.00,,,0.00,WUHU216HW,2013-01-25 01:18:00,
2013-01-24 20:23:00,15.8,-8.9,30.54,NE,45,0.0,0.0,32,0.00,,,0.00,WUHU216HW,2013-01-25 01:23:00,
2013-01-24 20:28:00,15.6,-8.5,30.54,NE,45,0.0,0.0,33,0.00,,,0.00,WUHU216HW,2013-01-25 01:28:00,
2013-01-24 20:33:00,15.6,-7.9,30.53,NE,45,0.0,0.0,34,0.00,,,0.00,WUHU216HW,2013-01-25 01:33:00,
2013-01-24 20:38:00,15.4,-8.1,30.54,NE,45,0.0,0.0,34,0.00,,,0.00,WUHU216HW,2013-01-25 01:38:00,
2013-01-24 20:43:00,15.4,-7.5,30.53,NE,45,0.0,0.0,35,0.00,,,0.00,WUHU216HW,2013-01-25 01:43:00,
2013-01-24 20:48:00,15.4,-7.5,30.54,NE,45,0.0,0.0,35,0.00,,,0.00,WUHU216HW,2013-01-25 01:48:00,
2013-01-24 20:53:00,15.2,-7.7,30.53,NE,45,0.0,0.0,35,0.00,,,0.00,WUHU216HW,2013-01-25 01:53:00,
2013-01-24 20:58:00,15.2,-7.7,30.53,NE,45,0.0,0.0,35,0.00,,,0.00,WUHU216HW,2013-01-25 01:58:00,
2013-01-24 21:03:00,15.2,-7.1,30.53,NE,45,0.0,0.0,36,0.00,,,0.00,WUHU216HW,2013-01-25 02:03:00,
2013-01-24 21:08:00,15.2,-7.1,30.52,NE,45,0.0,0.0,36,0.00,,,0.00,WUHU216HW,2013-01-25 02:08:00,
2013-01-24 21:13:00,15.0,-7.1,30.52,NE,45,0.0,0.0,36,0.00,,,0.00,WUHU216HW,2013-01-25 02:13:00,
2013-01-24 21:18:00,15.0,-7.3,30.52,NE,45,0.0,0.0,36,0.00,,,0.00,WUHU216HW,2013-01-25 02:18:00,
2013-01-24 21:23:00,15.0,-6.7,30.51,NE,45,0.0,0.0,37,0.00,,,0.00,WUHU216HW,2013-01-25 02:23:00,
2013-01-24 21:28:00,15.0,-6.8,30.52,NE,45,0.0,0.0,37,0.00,,,0.00,WUHU216HW,2013-01-25 02:28:00,
2013-01-24 21:33:00,14.9,-6.8,30.53,NE,45,0.0,0.0,37,0.00,,,0.00,WUHU216HW,2013-01-25 02:33:00,
2013-01-24 21:38:00,14.9,-6.3,30.52,NE,45,0.0,0.0,38,0.00,,,0.00,WUHU216HW,2013-01-25 02:38:00,
2013-01-24 21:43:00,14.9,-6.3,30.52,NE,45,0.0,0.0,38,0.00,,,0.00,WUHU216HW,2013-01-25 02:43:00,
2013-01-24 21:48:00,14.7,-6.4,30.52,NE,45,0.0,0.0,38,0.00,,,0.00,WUHU216HW,2013-01-25 02:48:00,
2013-01-24 21:53:00,14.7,-5.9,30.52,NE,45,0.0,0.0,39,0.00,,,0.00,WUHU216HW,2013-01-25 02:53:00,
2013-01-24 21:58:00,14.5,-5.9,30.52,NE,45,0.0,0.0,39,0.00,,,0.00,WUHU216HW,2013-01-25 02:58:00,
2013-01-24 22:03:00,14.7,-5.3,30.52,NE,45,0.0,0.0,40,0.00,,,0.00,WUHU216HW,2013-01-25 03:03:00,
2013-01-24 22:08:00,14.7,-5.3,30.51,NE,45,0.0,0.0,40,0.00,,,0.00,WUHU216HW,2013-01-25 03:08:00,
2013-01-24 22:13:00,14.9,-5.1,30.51,NE,45,0.0,0.0,40,0.00,,,0.00,WUHU216HW,2013-01-25 03:13:00,
2013-01-24 22:18:00,14.9,-5.1,30.51,NE,45,0.0,0.0,40,0.00,,,0.00,WUHU216HW,2013-01-25 03:18:00,
2013-01-24 22:23:00,14.9,-4.7,30.51,NE,45,0.0,0.0,41,0.00,,,0.00,WUHU216HW,2013-01-25 03:23:00,
2013-01-24 22:28:00,15.0,-4.5,30.51,NE,45,0.0,0.0,41,0.00,,,0.00,WUHU216HW,2013-01-25 03:28:00,
2013-01-24 22:33:00,15.2,-4.5,30.51,NE,45,0.0,0.0,41,0.00,,,0.00,WUHU216HW,2013-01-25 03:33:00,
2013-01-24 22:38:00,15.2,-4.3,30.51,NE,45,0.0,0.0,41,0.00,,,0.00,WUHU216HW,2013-01-25 03:38:00,
2013-01-24 22:43:00,15.2,-3.8,30.51,NE,45,0.0,0.0,42,0.00,,,0.00,WUHU216HW,2013-01-25 03:43:00,
2013-01-24 22:48:00,15.4,-3.7,30.51,NE,45,0.0,0.0,42,0.00,,,0.00,WUHU216HW,2013-01-25 03:48:00,
2013-01-24 22:53:00,15.4,-3.2,30.51,NE,45,0.0,0.0,43,0.00,,,0.00,WUHU216HW,2013-01-25 03:53:00,
2013-01-24 22:58:00,15.4,-3.2,30.51,NE,45,0.0,0.0,43,0.00,,,0.00,WUHU216HW,2013-01-25 03:58:00,
2013-01-24 23:03:00,15.4,-3.2,30.52,NE,45,0.0,0.0,43,0.00,,,0.00,WUHU216HW,2013-01-25 04:03:00,
2013-01-24 23:08:00,15.4,-3.2,30.51,NE,45,0.0,0.0,43,0.00,,,0.00,WUHU216HW,2013-01-25 04:08:00,
2013-01-24 23:13:00,15.4,-3.2,30.50,NE,45,0.0,0.0,43,0.00,,,0.00,WUHU216HW,2013-01-25 04:13:00,
2013-01-24 23:18:00,15.4,-3.2,30.50,NE,45,0.0,0.0,43,0.00,,,0.00,WUHU216HW,2013-01-25 04:18:00,
2013-01-24 23:23:00,15.6,-3.0,30.50,NE,45,0.0,0.0,43,0.00,,,0.00,WUHU216HW,2013-01-25 04:23:00,
2013-01-24 23:28:00,15.6,-2.4,30.51,NE,45,0.0,0.0,43,0.00,,,0.00,WUHU216HW,2013-01-25 04:28:00,
2013-01-24 23:33:00,15.6,-2.5,30.51,NE,45,0.0,0.0,44,0.00,,,0.00,WUHU216HW,2013-01-25 04:33:00,
2013-01-24 23:38:00,15.6,-2.5,30.51,NE,45,0.0,0.0,44,0.00,,,0.00,WUHU216HW,2013-01-25 04:38:00,
2013-01-24 23:43:00,15.6,-2.5,30.51,NE,45,0.0,0.0,44,0.00,,,0.00,WUHU216HW,2013-01-25 04:43:00,
2013-01-24 23:48:00,15.6,-2.5,30.51,NE,45,0.0,0.0,44,0.00,,,0.00,WUHU216HW,2013-01-25 04:48:00,
2013-01-24 23:53:00,15.6,-2.5,30.50,NE,45,0.0,0.0,44,0.00,,,0.00,WUHU216HW,2013-01-25 04:53:00,
2013-01-24 23:58:00,15.6,-2.5,30.49,NE,45,0.0,0.0,44,0.00,,,0.00,WUHU216HW,2013-01-25 04:58:00,